Irene_c — WD12546 — position and weather

sailwx.info

Track history (hours):
 
Tides and Currents Weather Stations Pressure Air Temp Water Temp Dewpoint Dewpoint Depression Visibility Wind Speed Wind Dir Waves Ship Positions

Irene_c

Last reported at 2017-Dec-16 23:51 UTC. Time now 2017-Dec-17 04:02 UTC.
Position N 29°46' W 095°06'.

Length 8 m; draft 3 m.

MMSI: 367679290.

Date/timePositionNaut miles runAvg speedWind from/ knotsBaromVisibWave heightAir tempDewpointWater temp
2017-Dec-16 23:51N 29°46' W 095°06'1 1.9
2017-Dec-16 23:29N 29°46' W 095°06'0 0.3
2017-Dec-16 22:56N 29°46' W 095°06'1 0.2
2017-Dec-16 18:18N 29°46' W 095°06'1 0.5
2017-Dec-16 16:51N 29°46' W 095°06'2 4.4
2017-Dec-16 16:30N 29°44' W 095°07'3 1.8
2017-Dec-16 14:39N 29°45' W 095°11'0 0.9
2017-Dec-16 14:25N 29°45' W 095°10'0 1.1
2017-Dec-16 14:00N 29°45' W 095°10'0 0.4
2017-Dec-16 13:01N 29°45' W 095°10'0 0.0
2017-Dec-16 12:57N 29°45' W 095°10'0 0.2
2017-Dec-16 11:26N 29°45' W 095°11'2 4.5
2017-Dec-16 11:00N 29°44' W 095°09'3 6.2
2017-Dec-16 10:30N 29°46' W 095°05'2 0.1
2017-Dec-15 21:49N 29°47' W 095°04'1 3.9
2017-Dec-15 21:28N 29°46' W 095°05'3 6.4
2017-Dec-15 20:59N 29°44' W 095°02'3 6.6
2017-Dec-15 20:30N 29°41' W 094°59'4 7.6
2017-Dec-15 20:01N 29°38' W 094°58'4 7.3
2017-Dec-15 19:31N 29°35' W 094°56'4 7.5
2017-Dec-15 18:55N 29°31' W 094°53'1 0.0
2017-Dec-13 22:06N 29°30' W 094°52'1 5.5
2017-Dec-13 21:59N 29°30' W 094°53'2 4.8
2017-Dec-13 21:30N 29°32' W 094°54'2 4.6
2017-Dec-13 21:00N 29°34' W 094°55'3 5.8
2017-Dec-13 20:30N 29°37' W 094°57'3 5.8
2017-Dec-13 20:00N 29°39' W 094°58'3 5.8
2017-Dec-13 19:30N 29°42' W 094°60'3 5.3
2017-Dec-13 19:00N 29°44' W 095°02'4 0.3
2017-Dec-13 05:23N 29°47' W 095°06'0 0.0
2017-Dec-12 17:43N 29°47' W 095°06'0 0.0
2017-Dec-12 09:01N 29°47' W 095°06'0 0.3
2017-Dec-12 08:37N 29°47' W 095°06'1 2.9
2017-Dec-12 08:12N 29°47' W 095°04'0 0.8
2017-Dec-12 07:47N 29°47' W 095°04'2 0.8
2017-Dec-12 05:53N 29°47' W 095°06'1 0.1
2017-Dec-11 19:26N 29°46' W 095°06'1 0.2
2017-Dec-11 17:04N 29°46' W 095°06'1 4.0
2017-Dec-11 16:54N 29°45' W 095°06'1 1.8
2017-Dec-11 16:30N 29°46' W 095°06'1 0.8
2017-Dec-11 15:45N 29°46' W 095°05'2 5.9
2017-Dec-11 15:26N 29°45' W 095°04'2 5.6
2017-Dec-11 15:00N 29°43' W 095°01'3 5.3
2017-Dec-11 14:30N 29°42' W 094°59'3 6.4
2017-Dec-11 14:00N 29°39' W 094°58'3 6.7
2017-Dec-11 13:30N 29°35' W 094°56'3 6.5
2017-Dec-11 13:00N 29°33' W 094°54'3 5.9
2017-Dec-11 12:30N 29°30' W 094°52'3 5.6
2017-Dec-11 11:59N 29°28' W 094°51'69 4.7
2017-Dec-10 21:23N 30°03' W 093°43'2 5.4
2017-Dec-10 20:59N 30°04' W 093°40'3 6.2
2017-Dec-10 20:30N 30°04' W 093°37'3 5.0
2017-Dec-10 20:00N 30°04' W 093°34'2 4.8
2017-Dec-10 19:30N 30°04' W 093°31'3 5.6
2017-Dec-10 19:00N 30°04' W 093°28'3 5.7
2017-Dec-10 18:30N 30°04' W 093°24'3 5.5
2017-Dec-10 18:00N 30°04' W 093°21'3 5.1
2017-Dec-10 17:30N 30°06' W 093°20'3 5.1
2017-Dec-10 17:00N 30°08' W 093°20'2 4.1
2017-Dec-10 16:30N 30°10' W 093°19'2 3.9
2017-Dec-10 16:00N 30°12' W 093°18'3 5.3
2017-Dec-10 15:30N 30°13' W 093°15'2 4.2
2017-Dec-10 15:00N 30°15' W 093°14'1 1.6
2017-Dec-10 14:30N 30°15' W 093°14'2 3.3
2017-Dec-10 14:00N 30°15' W 093°12'0 0.1
2017-Dec-10 13:30N 30°15' W 093°12'0 0.0
2017-Dec-10 13:00N 30°15' W 093°12'0 0.0
2017-Dec-10 12:30N 30°15' W 093°12'0 0.0
2017-Dec-10 12:00N 30°15' W 093°12'0 0.0
2017-Dec-10 11:30N 30°15' W 093°12'0 0.0
2017-Dec-10 11:00N 30°15' W 093°12'0 0.0
2017-Dec-10 10:30N 30°15' W 093°12'0 0.0
2017-Dec-10 10:00N 30°15' W 093°12'0 0.0
2017-Dec-10 09:30N 30°15' W 093°12'0 0.0
2017-Dec-10 09:00N 30°15' W 093°12'0 0.0
2017-Dec-10 08:30N 30°15' W 093°12'0 0.0
2017-Dec-10 08:00N 30°15' W 093°12'0 0.0
2017-Dec-10 07:30N 30°15' W 093°12'0 0.0
2017-Dec-10 07:00N 30°15' W 093°12'0 0.0
2017-Dec-10 06:30N 30°15' W 093°12'0 0.0
2017-Dec-10 06:00N 30°15' W 093°12'0 0.0
2017-Dec-10 05:30N 30°15' W 093°12'0 0.0
2017-Dec-10 05:00N 30°15' W 093°12'0 0.0
2017-Dec-10 04:30N 30°15' W 093°12'0 0.0
2017-Dec-10 04:00N 30°15' W 093°12'0 0.0
2017-Dec-10 03:30N 30°15' W 093°12'0 0.0
2017-Dec-10 03:00N 30°15' W 093°12'0 0.0
2017-Dec-10 02:30N 30°15' W 093°12'0 0.0
2017-Dec-10 02:00N 30°15' W 093°12'0 0.0
2017-Dec-10 01:30N 30°15' W 093°12'0 0.0
2017-Dec-10 01:00N 30°15' W 093°12'0 0.0
2017-Dec-10 00:30N 30°15' W 093°12'0 0.0
2017-Dec-10 00:00N 30°15' W 093°12'0 0.0
2017-Dec-09 23:30N 30°15' W 093°12'0 0.0
2017-Dec-09 23:00N 30°15' W 093°12'0 0.0
2017-Dec-09 22:30N 30°15' W 093°12'0 0.0
2017-Dec-09 22:00N 30°15' W 093°12'0 0.0
2017-Dec-09 21:30N 30°15' W 093°12'1 1.4
2017-Dec-09 21:00N 30°15' W 093°13'1 1.6
2017-Dec-09 20:30N 30°15' W 093°13'2 3.8
2017-Dec-09 20:00N 30°14' W 093°15'1 2.6
2017-Dec-09 19:30N 30°13' W 093°16'3 5.8
2017-Dec-09 19:00N 30°11' W 093°18'3 5.2
2017-Dec-09 18:30N 30°09' W 093°20'3 5.4
2017-Dec-09 18:00N 30°06' W 093°20'2 4.9
2017-Dec-09 17:30N 30°04' W 093°21'2 3.6
2017-Dec-09 17:00N 30°04' W 093°23'3 5.9
2017-Dec-09 16:30N 30°04' W 093°26'3 5.8
2017-Dec-09 16:00N 30°04' W 093°30'3 5.8
2017-Dec-09 15:30N 30°04' W 093°33'3 5.7
2017-Dec-09 15:00N 30°04' W 093°36'3 5.4
2017-Dec-09 14:30N 30°04' W 093°39'3 5.2
2017-Dec-09 13:59N 30°03' W 093°43'69 4.7
2017-Dec-08 23:08N 29°27' W 094°50'1 6.2
2017-Dec-08 23:00N 29°27' W 094°51'3 6.3
2017-Dec-08 22:30N 29°30' W 094°52'3 6.2
2017-Dec-08 22:00N 29°33' W 094°54'3 5.1
2017-Dec-08 21:30N 29°35' W 094°56'3 6.0
2017-Dec-08 21:00N 29°37' W 094°58'3 6.4
2017-Dec-08 20:30N 29°40' W 094°59'3 6.1
2017-Dec-08 19:59N 29°43' W 095°01'4 5.7
2017-Dec-08 19:12N 29°46' W 095°05'1 0.1
2017-Dec-08 09:49N 29°47' W 095°06'1 3.9
2017-Dec-08 09:30N 29°46' W 095°06'1 2.7
2017-Dec-08 09:00N 29°45' W 095°06'1 1.6
2017-Dec-08 08:19N 29°45' W 095°06'1 0.5
2017-Dec-08 05:50N 29°47' W 095°06'1 3.2
2017-Dec-08 05:29N 29°45' W 095°06'0 0.5
2017-Dec-08 04:41N 29°46' W 095°06'1 0.4
2017-Dec-08 02:25N 29°47' W 095°06'1 0.8
2017-Dec-08 00:38N 29°45' W 095°06'1 5.0
2017-Dec-08 00:26N 29°46' W 095°05'2 5.3
2017-Dec-08 00:00N 29°44' W 095°03'2 4.2
2017-Dec-07 23:30N 29°43' W 095°01'2 4.8
2017-Dec-07 23:00N 29°41' W 094°59'3 5.9
2017-Dec-07 22:30N 29°39' W 094°58'3 6.1
2017-Dec-07 22:00N 29°36' W 094°57'3 5.9
2017-Dec-07 21:30N 29°33' W 094°55'3 5.5
2017-Dec-07 21:00N 29°31' W 094°53'70 4.5
2017-Dec-07 05:27N 30°03' W 093°42'2 5.5
2017-Dec-07 05:00N 30°04' W 093°39'3 5.4
2017-Dec-07 04:30N 30°04' W 093°36'3 5.4
2017-Dec-07 04:00N 30°04' W 093°33'3 5.4
2017-Dec-07 03:30N 30°04' W 093°29'3 5.4
2017-Dec-07 03:00N 30°04' W 093°26'3 5.2
2017-Dec-07 02:30N 30°04' W 093°23'2 4.6
2017-Dec-07 02:00N 30°04' W 093°21'  
Track history (hours):
 
Tides and Currents Weather Stations Pressure Air Temp Water Temp Dewpoint Dewpoint Depression Visibility Wind Speed Wind Dir Waves Ship Positions

Irene_c

Last reported at 2017-Dec-16 23:51 UTC. Time now 2017-Dec-17 04:02 UTC.
Position N 29°46' W 095°06'.

Length 8 m; draft 3 m.

MMSI: 367679290.

Date/timePositionNaut miles runAvg speedWind from/ knotsBaromVisibWave heightAir tempDewpointWater temp
2017-Dec-16 23:51N 29°46' W 095°06'1 1.9
2017-Dec-16 23:29N 29°46' W 095°06'0 0.3
2017-Dec-16 22:56N 29°46' W 095°06'1 0.2
2017-Dec-16 18:18N 29°46' W 095°06'1 0.5
2017-Dec-16 16:51N 29°46' W 095°06'2 4.4
2017-Dec-16 16:30N 29°44' W 095°07'3 1.8
2017-Dec-16 14:39N 29°45' W 095°11'0 0.9
2017-Dec-16 14:25N 29°45' W 095°10'0 1.1
2017-Dec-16 14:00N 29°45' W 095°10'0 0.4
2017-Dec-16 13:01N 29°45' W 095°10'0 0.0
2017-Dec-16 12:57N 29°45' W 095°10'0 0.2
2017-Dec-16 11:26N 29°45' W 095°11'2 4.5
2017-Dec-16 11:00N 29°44' W 095°09'3 6.2
2017-Dec-16 10:30N 29°46' W 095°05'2 0.1
2017-Dec-15 21:49N 29°47' W 095°04'1 3.9
2017-Dec-15 21:28N 29°46' W 095°05'3 6.4
2017-Dec-15 20:59N 29°44' W 095°02'3 6.6
2017-Dec-15 20:30N 29°41' W 094°59'4 7.6
2017-Dec-15 20:01N 29°38' W 094°58'4 7.3
2017-Dec-15 19:31N 29°35' W 094°56'4 7.5
2017-Dec-15 18:55N 29°31' W 094°53'1 0.0
2017-Dec-13 22:06N 29°30' W 094°52'1 5.5
2017-Dec-13 21:59N 29°30' W 094°53'2 4.8
2017-Dec-13 21:30N 29°32' W 094°54'2 4.6
2017-Dec-13 21:00N 29°34' W 094°55'3 5.8
2017-Dec-13 20:30N 29°37' W 094°57'3 5.8
2017-Dec-13 20:00N 29°39' W 094°58'3 5.8
2017-Dec-13 19:30N 29°42' W 094°60'3 5.3
2017-Dec-13 19:00N 29°44' W 095°02'4 0.3
2017-Dec-13 05:23N 29°47' W 095°06'0 0.0
2017-Dec-12 17:43N 29°47' W 095°06'0 0.0
2017-Dec-12 09:01N 29°47' W 095°06'0 0.3
2017-Dec-12 08:37N 29°47' W 095°06'1 2.9
2017-Dec-12 08:12N 29°47' W 095°04'0 0.8
2017-Dec-12 07:47N 29°47' W 095°04'2 0.8
2017-Dec-12 05:53N 29°47' W 095°06'1 0.1
2017-Dec-11 19:26N 29°46' W 095°06'1 0.2
2017-Dec-11 17:04N 29°46' W 095°06'1 4.0
2017-Dec-11 16:54N 29°45' W 095°06'1 1.8
2017-Dec-11 16:30N 29°46' W 095°06'1 0.8
2017-Dec-11 15:45N 29°46' W 095°05'2 5.9
2017-Dec-11 15:26N 29°45' W 095°04'2 5.6
2017-Dec-11 15:00N 29°43' W 095°01'3 5.3
2017-Dec-11 14:30N 29°42' W 094°59'3 6.4
2017-Dec-11 14:00N 29°39' W 094°58'3 6.7
2017-Dec-11 13:30N 29°35' W 094°56'3 6.5
2017-Dec-11 13:00N 29°33' W 094°54'3 5.9
2017-Dec-11 12:30N 29°30' W 094°52'3 5.6
2017-Dec-11 11:59N 29°28' W 094°51'69 4.7
2017-Dec-10 21:23N 30°03' W 093°43'2 5.4
2017-Dec-10 20:59N 30°04' W 093°40'3 6.2
2017-Dec-10 20:30N 30°04' W 093°37'3 5.0
2017-Dec-10 20:00N 30°04' W 093°34'2 4.8
2017-Dec-10 19:30N 30°04' W 093°31'3 5.6
2017-Dec-10 19:00N 30°04' W 093°28'3 5.7
2017-Dec-10 18:30N 30°04' W 093°24'3 5.5
2017-Dec-10 18:00N 30°04' W 093°21'3 5.1
2017-Dec-10 17:30N 30°06' W 093°20'3 5.1
2017-Dec-10 17:00N 30°08' W 093°20'2 4.1
2017-Dec-10 16:30N 30°10' W 093°19'2 3.9
2017-Dec-10 16:00N 30°12' W 093°18'3 5.3
2017-Dec-10 15:30N 30°13' W 093°15'2 4.2
2017-Dec-10 15:00N 30°15' W 093°14'1 1.6
2017-Dec-10 14:30N 30°15' W 093°14'2 3.3
2017-Dec-10 14:00N 30°15' W 093°12'0 0.1
2017-Dec-10 13:30N 30°15' W 093°12'0 0.0
2017-Dec-10 13:00N 30°15' W 093°12'0 0.0
2017-Dec-10 12:30N 30°15' W 093°12'0 0.0
2017-Dec-10 12:00N 30°15' W 093°12'0 0.0
2017-Dec-10 11:30N 30°15' W 093°12'0 0.0
2017-Dec-10 11:00N 30°15' W 093°12'0 0.0
2017-Dec-10 10:30N 30°15' W 093°12'0 0.0
2017-Dec-10 10:00N 30°15' W 093°12'0 0.0
2017-Dec-10 09:30N 30°15' W 093°12'0 0.0
2017-Dec-10 09:00N 30°15' W 093°12'0 0.0
2017-Dec-10 08:30N 30°15' W 093°12'0 0.0
2017-Dec-10 08:00N 30°15' W 093°12'0 0.0
2017-Dec-10 07:30N 30°15' W 093°12'0 0.0
2017-Dec-10 07:00N 30°15' W 093°12'0 0.0
2017-Dec-10 06:30N 30°15' W 093°12'0 0.0
2017-Dec-10 06:00N 30°15' W 093°12'0 0.0
2017-Dec-10 05:30N 30°15' W 093°12'0 0.0
2017-Dec-10 05:00N 30°15' W 093°12'0 0.0
2017-Dec-10 04:30N 30°15' W 093°12'0 0.0
2017-Dec-10 04:00N 30°15' W 093°12'0 0.0
2017-Dec-10 03:30N 30°15' W 093°12'0 0.0
2017-Dec-10 03:00N 30°15' W 093°12'0 0.0
2017-Dec-10 02:30N 30°15' W 093°12'0 0.0
2017-Dec-10 02:00N 30°15' W 093°12'0 0.0
2017-Dec-10 01:30N 30°15' W 093°12'0 0.0
2017-Dec-10 01:00N 30°15' W 093°12'0 0.0
2017-Dec-10 00:30N 30°15' W 093°12'0 0.0
2017-Dec-10 00:00N 30°15' W 093°12'0 0.0
2017-Dec-09 23:30N 30°15' W 093°12'0 0.0
2017-Dec-09 23:00N 30°15' W 093°12'0 0.0
2017-Dec-09 22:30N 30°15' W 093°12'0 0.0
2017-Dec-09 22:00N 30°15' W 093°12'0 0.0
2017-Dec-09 21:30N 30°15' W 093°12'1 1.4
2017-Dec-09 21:00N 30°15' W 093°13'1 1.6
2017-Dec-09 20:30N 30°15' W 093°13'2 3.8
2017-Dec-09 20:00N 30°14' W 093°15'1 2.6
2017-Dec-09 19:30N 30°13' W 093°16'3 5.8
2017-Dec-09 19:00N 30°11' W 093°18'3 5.2
2017-Dec-09 18:30N 30°09' W 093°20'3 5.4
2017-Dec-09 18:00N 30°06' W 093°20'2 4.9
2017-Dec-09 17:30N 30°04' W 093°21'2 3.6
2017-Dec-09 17:00N 30°04' W 093°23'3 5.9
2017-Dec-09 16:30N 30°04' W 093°26'3 5.8
2017-Dec-09 16:00N 30°04' W 093°30'3 5.8
2017-Dec-09 15:30N 30°04' W 093°33'3 5.7
2017-Dec-09 15:00N 30°04' W 093°36'3 5.4
2017-Dec-09 14:30N 30°04' W 093°39'3 5.2
2017-Dec-09 13:59N 30°03' W 093°43'69 4.7
2017-Dec-08 23:08N 29°27' W 094°50'1 6.2
2017-Dec-08 23:00N 29°27' W 094°51'3 6.3
2017-Dec-08 22:30N 29°30' W 094°52'3 6.2
2017-Dec-08 22:00N 29°33' W 094°54'3 5.1
2017-Dec-08 21:30N 29°35' W 094°56'3 6.0
2017-Dec-08 21:00N 29°37' W 094°58'3 6.4
2017-Dec-08 20:30N 29°40' W 094°59'3 6.1
2017-Dec-08 19:59N 29°43' W 095°01'4 5.7
2017-Dec-08 19:12N 29°46' W 095°05'1 0.1
2017-Dec-08 09:49N 29°47' W 095°06'1 3.9
2017-Dec-08 09:30N 29°46' W 095°06'1 2.7
2017-Dec-08 09:00N 29°45' W 095°06'1 1.6
2017-Dec-08 08:19N 29°45' W 095°06'1 0.5
2017-Dec-08 05:50N 29°47' W 095°06'1 3.2
2017-Dec-08 05:29N 29°45' W 095°06'0 0.5
2017-Dec-08 04:41N 29°46' W 095°06'1 0.4
2017-Dec-08 02:25N 29°47' W 095°06'1 0.8
2017-Dec-08 00:38N 29°45' W 095°06'1 5.0
2017-Dec-08 00:26N 29°46' W 095°05'2 5.3
2017-Dec-08 00:00N 29°44' W 095°03'2 4.2
2017-Dec-07 23:30N 29°43' W 095°01'2 4.8
2017-Dec-07 23:00N 29°41' W 094°59'3 5.9
2017-Dec-07 22:30N 29°39' W 094°58'3 6.1
2017-Dec-07 22:00N 29°36' W 094°57'3 5.9
2017-Dec-07 21:30N 29°33' W 094°55'3 5.5
2017-Dec-07 21:00N 29°31' W 094°53'70 4.5
2017-Dec-07 05:27N 30°03' W 093°42'2 5.5
2017-Dec-07 05:00N 30°04' W 093°39'3 5.4
2017-Dec-07 04:30N 30°04' W 093°36'3 5.4
2017-Dec-07 04:00N 30°04' W 093°33'3 5.4
2017-Dec-07 03:30N 30°04' W 093°29'3 5.4
2017-Dec-07 03:00N 30°04' W 093°26'3 5.2
2017-Dec-07 02:30N 30°04' W 093°23'2 4.6
2017-Dec-07 02:00N 30°04' W 093°21'  

Dump ship's entire track history